sensor_id;sensor_type;location;lat;lon;timestamp;temperature;humidity
18648;DHT22;9453;50.294;18.644;2024-01-15T05:03:08;1.80;94.40
18648;DHT22;9453;50.294;18.644;2024-01-15T05:05:35;1.80;94.50
18648;DHT22;9453;50.294;18.644;2024-01-15T05:08:02;1.80;94.60
18648;DHT22;9453;50.294;18.644;2024-01-15T05:10:29;1.80;94.60
18648;DHT22;9453;50.294;18.644;2024-01-15T05:12:56;1.80;94.50
18648;DHT22;9453;50.294;18.644;2024-01-15T05:15:23;1.80;94.60
18648;DHT22;9453;50.294;18.644;2024-01-15T05:17:50;1.80;94.60
18648;DHT22;9453;50.294;18.644;2024-01-15T05:20:19;1.80;94.30
18648;DHT22;9453;50.294;18.644;2024-01-15T05:22:46;1.80;94.30
18648;DHT22;9453;50.294;18.644;2024-01-15T05:25:13;1.80;94.30
18648;DHT22;9453;50.294;18.644;2024-01-15T05:27:42;1.80;94.40
18648;DHT22;9453;50.294;18.644;2024-01-15T05:30:12;1.80;94.60
18648;DHT22;9453;50.294;18.644;2024-01-15T05:32:39;1.80;94.60
18648;DHT22;9453;50.294;18.644;2024-01-15T05:35:06;1.80;94.50
18648;DHT22;9453;50.294;18.644;2024-01-15T05:37:34;1.80;94.50
18648;DHT22;9453;50.294;18.644;2024-01-15T05:40:01;1.80;94.60
18648;DHT22;9453;50.294;18.644;2024-01-15T05:42:31;1.80;94.40
18648;DHT22;9453;50.294;18.644;2024-01-15T05:44:58;1.80;94.30
18648;DHT22;9453;50.294;18.644;2024-01-15T05:47:27;1.80;94.40
18648;DHT22;9453;50.294;18.644;2024-01-15T05:49:55;1.80;94.50
18648;DHT22;9453;50.294;18.644;2024-01-15T05:52:21;1.80;94.50
18648;DHT22;9453;50.294;18.644;2024-01-15T05:54:50;1.80;94.50
18648;DHT22;9453;50.294;18.644;2024-01-15T05:57:17;1.80;94.70
18648;DHT22;9453;50.294;18.644;2024-01-15T05:59:45;1.80;94.60
18648;DHT22;9453;50.294;18.644;2024-01-15T06:02:12;1.80;94.60
18648;DHT22;9453;50.294;18.644;2024-01-15T06:04:39;1.80;94.80
18648;DHT22;9453;50.294;18.644;2024-01-15T06:07:09;1.80;94.80
18648;DHT22;9453;50.294;18.644;2024-01-15T06:09:36;1.80;94.80
18648;DHT22;9453;50.294;18.644;2024-01-15T06:12:08;1.80;94.50
18648;DHT22;9453;50.294;18.644;2024-01-15T06:14:38;1.80;94.60
18648;DHT22;9453;50.294;18.644;2024-01-15T06:17:06;1.70;94.50
18648;DHT22;9453;50.294;18.644;2024-01-15T06:19:33;1.70;94.70
18648;DHT22;9453;50.294;18.644;2024-01-15T06:22:00;1.70;94.70
18648;DHT22;9453;50.294;18.644;2024-01-15T06:24:27;1.70;94.70
18648;DHT22;9453;50.294;18.644;2024-01-15T06:26:56;1.60;94.70
18648;DHT22;9453;50.294;18.644;2024-01-15T06:29:25;1.60;94.80
18648;DHT22;9453;50.294;18.644;2024-01-15T06:31:53;1.60;95.00
18648;DHT22;9453;50.294;18.644;2024-01-15T06:34:20;1.60;95.00
18648;DHT22;9453;50.294;18.644;2024-01-15T06:36:47;1.60;95.10
18648;DHT22;9453;50.294;18.644;2024-01-15T06:39:14;1.50;95.00
18648;DHT22;9453;50.294;18.644;2024-01-15T06:41:41;1.60;95.20
18648;DHT22;9453;50.294;18.644;2024-01-15T06:44:15;1.50;95.20
18648;DHT22;9453;50.294;18.644;2024-01-15T06:46:44;1.60;95.10
18648;DHT22;9453;50.294;18.644;2024-01-15T06:49:12;1.50;95.10
18648;DHT22;9453;50.294;18.644;2024-01-15T06:51:39;1.50;95.10
18648;DHT22;9453;50.294;18.644;2024-01-15T06:54:09;1.50;95.10
18648;DHT22;9453;50.294;18.644;2024-01-15T06:56:36;1.40;95.10
18648;DHT22;9453;50.294;18.644;2024-01-15T06:59:03;1.40;95.40
18648;DHT22;9453;50.294;18.644;2024-01-15T07:01:30;1.40;95.50
18648;DHT22;9453;50.294;18.644;2024-01-15T07:03:58;1.40;95.40
18648;DHT22;9453;50.294;18.644;2024-01-15T07:06:25;1.50;95.30
18648;DHT22;9453;50.294;18.644;2024-01-15T07:08:52;1.60;95.30
18648;DHT22;9453;50.294;18.644;2024-01-15T07:11:19;1.60;95.30
18648;DHT22;9453;50.294;18.644;2024-01-15T07:13:49;1.70;94.80
18648;DHT22;9453;50.294;18.644;2024-01-15T07:16:16;1.80;94.70
18648;DHT22;9453;50.294;18.644;2024-01-15T07:18:43;1.80;94.60
18648;DHT22;9453;50.294;18.644;2024-01-15T07:21:11;1.80;94.40
18648;DHT22;9453;50.294;18.644;2024-01-15T07:23:38;1.90;94.20
18648;DHT22;9453;50.294;18.644;2024-01-15T07:26:05;1.90;94.10
18648;DHT22;9453;50.294;18.644;2024-01-15T07:28:32;1.90;94.00
18648;DHT22;9453;50.294;18.644;2024-01-15T07:31:01;2.00;94.00
18648;DHT22;9453;50.294;18.644;2024-01-15T07:33:29;2.00;93.70
18648;DHT22;9453;50.294;18.644;2024-01-15T07:35:55;2.10;93.60
18648;DHT22;9453;50.294;18.644;2024-01-15T07:38:23;2.00;93.30
18648;DHT22;9453;50.294;18.644;2024-01-15T07:40:50;2.00;93.30
18648;DHT22;9453;50.294;18.644;2024-01-15T07:43:19;2.10;93.20
18648;DHT22;9453;50.294;18.644;2024-01-15T07:45:46;2.20;93.20
18648;DHT22;9453;50.294;18.644;2024-01-15T07:48:13;2.20;93.10
18648;DHT22;9453;50.294;18.644;2024-01-15T07:50:40;2.10;93.00
18648;DHT22;9453;50.294;18.644;2024-01-15T07:53:06;2.20;93.10
18648;DHT22;9453;50.294;18.644;2024-01-15T07:55:35;2.10;93.00
18648;DHT22;9453;50.294;18.644;2024-01-15T07:58:03;2.10;92.80
18648;DHT22;9453;50.294;18.644;2024-01-15T08:00:30;2.20;93.20
18648;DHT22;9453;50.294;18.644;2024-01-15T08:02:58;2.20;93.10
18648;DHT22;9453;50.294;18.644;2024-01-15T08:05:25;2.30;94.20
18648;DHT22;9453;50.294;18.644;2024-01-15T08:07:52;2.20;96.00
18648;DHT22;9453;50.294;18.644;2024-01-15T08:10:19;2.00;98.60
18648;DHT22;9453;50.294;18.644;2024-01-15T08:12:47;2.00;98.80
18648;DHT22;9453;50.294;18.644;2024-01-15T08:15:14;1.90;99.40
18648;DHT22;9453;50.294;18.644;2024-01-15T08:17:41;1.90;99.00
18648;DHT22;9453;50.294;18.644;2024-01-15T08:20:08;1.90;99.00
18648;DHT22;9453;50.294;18.644;2024-01-15T08:22:36;2.00;98.50
18648;DHT22;9453;50.294;18.644;2024-01-15T08:25:03;2.10;96.70
18648;DHT22;9453;50.294;18.644;2024-01-15T08:27:30;2.20;96.80
18648;DHT22;9453;50.294;18.644;2024-01-15T08:29:58;2.20;96.20
18648;DHT22;9453;50.294;18.644;2024-01-15T08:32:25;2.30;96.00
18648;DHT22;9453;50.294;18.644;2024-01-15T08:34:57;2.30;95.60
18648;DHT22;9453;50.294;18.644;2024-01-15T08:37:24;2.40;95.60
18648;DHT22;9453;50.294;18.644;2024-01-15T08:39:51;2.40;94.80
18648;DHT22;9453;50.294;18.644;2024-01-15T08:42:18;2.50;94.70
18648;DHT22;9453;50.294;18.644;2024-01-15T08:44:45;2.50;94.30
18648;DHT22;9453;50.294;18.644;2024-01-15T08:47:14;2.60;93.90
18648;DHT22;9453;50.294;18.644;2024-01-15T08:49:41;2.60;93.40
18648;DHT22;9453;50.294;18.644;2024-01-15T08:52:08;2.70;93.40
18648;DHT22;9453;50.294;18.644;2024-01-15T08:54:35;2.80;93.10
18648;DHT22;9453;50.294;18.644;2024-01-15T08:57:02;2.80;92.90
18648;DHT22;9453;50.294;18.644;2024-01-15T08:59:29;2.80;92.50
18648;DHT22;9453;50.294;18.644;2024-01-15T09:01:56;2.80;92.60
18648;DHT22;9453;50.294;18.644;2024-01-15T09:04:24;2.80;92.60
18648;DHT22;9453;50.294;18.644;2024-01-15T09:06:51;2.80;92.30
18648;DHT22;9453;50.294;18.644;2024-01-15T09:09:18;2.80;92.00
18648;DHT22;9453;50.294;18.644;2024-01-15T09:11:45;2.80;92.00
18648;DHT22;9453;50.294;18.644;2024-01-15T09:14:13;2.80;92.20
18648;DHT22;9453;50.294;18.644;2024-01-15T09:16:40;2.80;92.10
18648;DHT22;9453;50.294;18.644;2024-01-15T09:19:07;2.90;91.90
18648;DHT22;9453;50.294;18.644;2024-01-15T09:21:35;2.90;92.00
18648;DHT22;9453;50.294;18.644;2024-01-15T09:24:02;3.00;91.40
18648;DHT22;9453;50.294;18.644;2024-01-15T09:26:29;3.10;91.50
18648;DHT22;9453;50.294;18.644;2024-01-15T09:28:56;3.20;91.50
18648;DHT22;9453;50.294;18.644;2024-01-15T09:31:24;3.40;91.40
18648;DHT22;9453;50.294;18.644;2024-01-15T09:33:51;3.50;91.00
18648;DHT22;9453;50.294;18.644;2024-01-15T09:36:21;3.50;90.10
18648;DHT22;9453;50.294;18.644;2024-01-15T09:38:50;3.50;90.10
18648;DHT22;9453;50.294;18.644;2024-01-15T09:41:17;3.60;90.00
18648;DHT22;9453;50.294;18.644;2024-01-15T09:43:44;3.70;90.10
18648;DHT22;9453;50.294;18.644;2024-01-15T09:46:11;3.70;90.00
18648;DHT22;9453;50.294;18.644;2024-01-15T09:48:39;3.70;89.20
18648;DHT22;9453;50.294;18.644;2024-01-15T09:51:06;3.80;89.50
18648;DHT22;9453;50.294;18.644;2024-01-15T09:53:33;3.90;88.90
18648;DHT22;9453;50.294;18.644;2024-01-15T09:56:02;4.00;88.50
18648;DHT22;9453;50.294;18.644;2024-01-15T09:58:29;3.90;87.30
18648;DHT22;9453;50.294;18.644;2024-01-15T10:00:57;3.90;87.60
18648;DHT22;9453;50.294;18.644;2024-01-15T10:03:24;3.90;87.30
18648;DHT22;9453;50.294;18.644;2024-01-15T10:05:51;3.90;87.10
18648;DHT22;9453;50.294;18.644;2024-01-15T10:08:18;3.90;86.20
18648;DHT22;9453;50.294;18.644;2024-01-15T10:10:45;4.00;86.20
18648;DHT22;9453;50.294;18.644;2024-01-15T10:13:14;4.20;86.60
18648;DHT22;9453;50.294;18.644;2024-01-15T10:15:45;4.30;85.70
18648;DHT22;9453;50.294;18.644;2024-01-15T10:18:12;4.40;85.30
18648;DHT22;9453;50.294;18.644;2024-01-15T10:20:39;4.50;84.90
18648;DHT22;9453;50.294;18.644;2024-01-15T10:23:08;4.50;84.00
18648;DHT22;9453;50.294;18.644;2024-01-15T10:25:35;4.50;83.40
18648;DHT22;9453;50.294;18.644;2024-01-15T10:28:08;4.50;83.20
18648;DHT22;9453;50.294;18.644;2024-01-15T10:30:37;4.50;83.10
18648;DHT22;9453;50.294;18.644;2024-01-15T10:33:04;4.50;83.10
18648;DHT22;9453;50.294;18.644;2024-01-15T10:35:32;4.70;83.40
18648;DHT22;9453;50.294;18.644;2024-01-15T10:37:59;4.80;82.90
18648;DHT22;9453;50.294;18.644;2024-01-15T10:40:27;4.80;80.70
18648;DHT22;9453;50.294;18.644;2024-01-15T10:42:57;4.80;81.30
18648;DHT22;9453;50.294;18.644;2024-01-15T10:45:24;4.90;80.90
18648;DHT22;9453;50.294;18.644;2024-01-15T10:47:53;4.90;80.60
18648;DHT22;9453;50.294;18.644;2024-01-15T10:50:24;4.90;80.80
18648;DHT22;9453;50.294;18.644;2024-01-15T10:52:51;4.90;80.40
18648;DHT22;9453;50.294;18.644;2024-01-15T10:55:19;4.90;79.80
18648;DHT22;9453;50.294;18.644;2024-01-15T10:57:48;4.80;79.30
18648;DHT22;9453;50.294;18.644;2024-01-15T11:00:16;4.80;79.70
18648;DHT22;9453;50.294;18.644;2024-01-15T11:02:43;4.90;79.70
18648;DHT22;9453;50.294;18.644;2024-01-15T11:05:12;4.80;79.10
18648;DHT22;9453;50.294;18.644;2024-01-15T11:07:40;4.70;79.10
18648;DHT22;9453;50.294;18.644;2024-01-15T11:10:40;4.80;79.30
18648;DHT22;9453;50.294;18.644;2024-01-15T11:13:14;4.70;79.00
18648;DHT22;9453;50.294;18.644;2024-01-15T11:15:57;4.60;79.10
18648;DHT22;9453;50.294;18.644;2024-01-15T11:18:27;4.50;79.00
18648;DHT22;9453;50.294;18.644;2024-01-15T11:21:24;4.40;79.50
18648;DHT22;9453;50.294;18.644;2024-01-15T11:23:54;4.30;79.50
18648;DHT22;9453;50.294;18.644;2024-01-15T11:26:30;4.00;80.00
18648;DHT22;9453;50.294;18.644;2024-01-15T11:28:56;4.10;81.00
18648;DHT22;9453;50.294;18.644;2024-01-15T11:31:27;3.90;80.40
18648;DHT22;9453;50.294;18.644;2024-01-15T11:33:56;3.90;81.20
18648;DHT22;9453;50.294;18.644;2024-01-15T11:37:02;3.70;81.50
18648;DHT22;9453;50.294;18.644;2024-01-15T11:39:41;3.70;81.80
18648;DHT22;9453;50.294;18.644;2024-01-15T11:42:10;3.60;82.00
18648;DHT22;9453;50.294;18.644;2024-01-15T11:44:38;3.60;82.30
18648;DHT22;9453;50.294;18.644;2024-01-15T11:47:08;3.60;82.30
18648;DHT22;9453;50.294;18.644;2024-01-15T11:49:53;3.50;82.00
18648;DHT22;9453;50.294;18.644;2024-01-15T11:52:26;3.50;82.20
18648;DHT22;9453;50.294;18.644;2024-01-15T11:55:02;3.40;82.80
18648;DHT22;9453;50.294;18.644;2024-01-15T11:57:37;3.40;83.10
18648;DHT22;9453;50.294;18.644;2024-01-15T12:00:09;3.30;83.60
18648;DHT22;9453;50.294;18.644;2024-01-15T12:02:36;3.30;84.10
18648;DHT22;9453;50.294;18.644;2024-01-15T12:05:03;3.40;84.90
18648;DHT22;9453;50.294;18.644;2024-01-15T12:07:32;3.40;84.20
18648;DHT22;9453;50.294;18.644;2024-01-15T12:09:59;3.30;84.10
18648;DHT22;9453;50.294;18.644;2024-01-15T12:12:32;3.30;84.50
18648;DHT22;9453;50.294;18.644;2024-01-15T12:15:01;3.30;84.10
18648;DHT22;9453;50.294;18.644;2024-01-15T12:17:29;3.20;83.60
18648;DHT22;9453;50.294;18.644;2024-01-15T12:19:57;3.20;84.00
18648;DHT22;9453;50.294;18.644;2024-01-15T12:22:24;3.20;84.30
18648;DHT22;9453;50.294;18.644;2024-01-15T12:24:53;3.10;83.70
18648;DHT22;9453;50.294;18.644;2024-01-15T12:27:20;3.00;83.90
18648;DHT22;9453;50.294;18.644;2024-01-15T12:29:47;3.00;84.10
18648;DHT22;9453;50.294;18.644;2024-01-15T12:32:14;3.10;85.10
18648;DHT22;9453;50.294;18.644;2024-01-15T12:34:43;3.00;84.50
18648;DHT22;9453;50.294;18.644;2024-01-15T12:37:10;3.10;84.10
18648;DHT22;9453;50.294;18.644;2024-01-15T12:39:37;3.10;83.60
18648;DHT22;9453;50.294;18.644;2024-01-15T12:42:08;3.10;83.00
18648;DHT22;9453;50.294;18.644;2024-01-15T12:44:38;3.10;83.30
18648;DHT22;9453;50.294;18.644;2024-01-15T12:47:06;3.10;83.60
18648;DHT22;9453;50.294;18.644;2024-01-15T12:49:33;3.10;83.30
18648;DHT22;9453;50.294;18.644;2024-01-15T12:52:08;3.00;83.10
18648;DHT22;9453;50.294;18.644;2024-01-15T12:54:35;3.10;83.10
18648;DHT22;9453;50.294;18.644;2024-01-15T12:57:03;3.10;84.00
18648;DHT22;9453;50.294;18.644;2024-01-15T12:59:31;3.10;82.70
18648;DHT22;9453;50.294;18.644;2024-01-15T13:01:58;3.10;83.00
18648;DHT22;9453;50.294;18.644;2024-01-15T13:04:25;3.10;82.40
18648;DHT22;9453;50.294;18.644;2024-01-15T13:06:52;3.10;82.80
18648;DHT22;9453;50.294;18.644;2024-01-15T13:09:20;3.20;82.90
18648;DHT22;9453;50.294;18.644;2024-01-15T13:11:46;3.20;82.00
18648;DHT22;9453;50.294;18.644;2024-01-15T13:14:13;3.20;81.90
18648;DHT22;9453;50.294;18.644;2024-01-15T13:16:42;3.30;82.00
18648;DHT22;9453;50.294;18.644;2024-01-15T13:19:09;3.30;82.70
18648;DHT22;9453;50.294;18.644;2024-01-15T13:21:38;3.30;82.00
18648;DHT22;9453;50.294;18.644;2024-01-15T13:24:08;3.30;81.70
18648;DHT22;9453;50.294;18.644;2024-01-15T13:26:36;3.20;81.30
18648;DHT22;9453;50.294;18.644;2024-01-15T13:29:04;3.20;82.10
18648;DHT22;9453;50.294;18.644;2024-01-15T13:31:31;3.20;82.00
18648;DHT22;9453;50.294;18.644;2024-01-15T13:34:00;3.20;81.80
18648;DHT22;9453;50.294;18.644;2024-01-15T13:36:27;3.20;81.50
18648;DHT22;9453;50.294;18.644;2024-01-15T13:38:54;3.10;81.10
18648;DHT22;9453;50.294;18.644;2024-01-15T13:41:22;3.10;81.40
18648;DHT22;9453;50.294;18.644;2024-01-15T13:43:53;3.00;81.80
18648;DHT22;9453;50.294;18.644;2024-01-15T13:46:23;3.10;81.90
18648;DHT22;9453;50.294;18.644;2024-01-15T13:48:50;2.90;81.70
18648;DHT22;9453;50.294;18.644;2024-01-15T13:51:18;2.80;81.90
18648;DHT22;9453;50.294;18.644;2024-01-15T13:53:45;2.80;82.40
18648;DHT22;9453;50.294;18.644;2024-01-15T13:56:12;2.80;82.30
18648;DHT22;9453;50.294;18.644;2024-01-15T13:58:39;2.70;82.00
18648;DHT22;9453;50.294;18.644;2024-01-15T14:01:06;2.70;82.30
18648;DHT22;9453;50.294;18.644;2024-01-15T14:03:33;2.60;82.90
18648;DHT22;9453;50.294;18.644;2024-01-15T14:06:00;2.60;82.70
18648;DHT22;9453;50.294;18.644;2024-01-15T14:08:30;2.60;83.50
18648;DHT22;9453;50.294;18.644;2024-01-15T14:10:57;2.60;83.70
18648;DHT22;9453;50.294;18.644;2024-01-15T14:13:24;2.60;83.70
18648;DHT22;9453;50.294;18.644;2024-01-15T14:15:55;2.60;83.50
18648;DHT22;9453;50.294;18.644;2024-01-15T14:18:22;2.50;83.30
18648;DHT22;9453;50.294;18.644;2024-01-15T14:20:49;2.50;83.70
18648;DHT22;9453;50.294;18.644;2024-01-15T14:23:19;2.50;83.70
18648;DHT22;9453;50.294;18.644;2024-01-15T14:25:48;2.50;83.70
18648;DHT22;9453;50.294;18.644;2024-01-15T14:28:15;2.50;84.00
18648;DHT22;9453;50.294;18.644;2024-01-15T14:30:42;2.40;84.00
18648;DHT22;9453;50.294;18.644;2024-01-15T14:33:09;2.40;83.70
18648;DHT22;9453;50.294;18.644;2024-01-15T14:35:36;2.40;83.90
18648;DHT22;9453;50.294;18.644;2024-01-15T14:38:03;2.30;84.30
18648;DHT22;9453;50.294;18.644;2024-01-15T14:40:30;2.30;84.30
18648;DHT22;9453;50.294;18.644;2024-01-15T14:42:59;2.30;84.20
18648;DHT22;9453;50.294;18.644;2024-01-15T14:45:26;2.30;84.80
18648;DHT22;9453;50.294;18.644;2024-01-15T14:47:54;2.30;84.90
18648;DHT22;9453;50.294;18.644;2024-01-15T14:50:22;2.30;84.90
18648;DHT22;9453;50.294;18.644;2024-01-15T14:52:49;2.30;84.60
18648;DHT22;9453;50.294;18.644;2024-01-15T14:55:16;2.40;84.80
18648;DHT22;9453;50.294;18.644;2024-01-15T14:57:43;2.30;84.70
18648;DHT22;9453;50.294;18.644;2024-01-15T15:00:12;2.20;84.40
18648;DHT22;9453;50.294;18.644;2024-01-15T15:02:42;2.30;84.70
18648;DHT22;9453;50.294;18.644;2024-01-15T15:05:09;2.30;84.50
18648;DHT22;9453;50.294;18.644;2024-01-15T15:07:41;2.30;84.70
18648;DHT22;9453;50.294;18.644;2024-01-15T15:10:09;2.30;84.90
18648;DHT22;9453;50.294;18.644;2024-01-15T15:12:36;2.20;84.80
18648;DHT22;9453;50.294;18.644;2024-01-15T15:15:04;2.20;84.70
18648;DHT22;9453;50.294;18.644;2024-01-15T15:17:37;2.30;84.90
18648;DHT22;9453;50.294;18.644;2024-01-15T15:20:06;2.20;85.10
18648;DHT22;9453;50.294;18.644;2024-01-15T15:22:33;2.20;85.10
18648;DHT22;9453;50.294;18.644;2024-01-15T15:25:00;2.20;85.50
18648;DHT22;9453;50.294;18.644;2024-01-15T15:27:27;2.20;85.40
18648;DHT22;9453;50.294;18.644;2024-01-15T15:29:54;2.30;85.70
18648;DHT22;9453;50.294;18.644;2024-01-15T15:32:21;2.30;85.70
18648;DHT22;9453;50.294;18.644;2024-01-15T15:34:50;2.30;85.20
18648;DHT22;9453;50.294;18.644;2024-01-15T15:37:17;2.30;85.20
18648;DHT22;9453;50.294;18.644;2024-01-15T15:39:44;2.30;85.20
18648;DHT22;9453;50.294;18.644;2024-01-15T15:42:11;2.30;85.40
18648;DHT22;9453;50.294;18.644;2024-01-15T15:44:39;2.20;85.50
18648;DHT22;9453;50.294;18.644;2024-01-15T15:47:11;2.20;85.50
18648;DHT22;9453;50.294;18.644;2024-01-15T15:49:39;2.20;85.50
18648;DHT22;9453;50.294;18.644;2024-01-15T15:52:08;2.30;85.20
18648;DHT22;9453;50.294;18.644;2024-01-15T15:54:34;2.20;85.10
18648;DHT22;9453;50.294;18.644;2024-01-15T15:57:03;2.20;85.10
18648;DHT22;9453;50.294;18.644;2024-01-15T15:59:32;2.20;85.40
18648;DHT22;9453;50.294;18.644;2024-01-15T16:01:59;2.20;85.70
18648;DHT22;9453;50.294;18.644;2024-01-15T16:04:26;2.10;85.40
18648;DHT22;9453;50.294;18.644;2024-01-15T16:06:52;2.20;85.70
18648;DHT22;9453;50.294;18.644;2024-01-15T16:09:21;2.20;85.60
18648;DHT22;9453;50.294;18.644;2024-01-15T16:11:48;2.20;85.40
18648;DHT22;9453;50.294;18.644;2024-01-15T16:14:16;2.20;85.30
18648;DHT22;9453;50.294;18.644;2024-01-15T16:16:43;2.10;85.40
18648;DHT22;9453;50.294;18.644;2024-01-15T16:19:10;2.10;86.40
18648;DHT22;9453;50.294;18.644;2024-01-15T16:21:37;2.10;85.80
18648;DHT22;9453;50.294;18.644;2024-01-15T16:24:04;2.10;85.00
18648;DHT22;9453;50.294;18.644;2024-01-15T16:26:34;2.10;85.40
18648;DHT22;9453;50.294;18.644;2024-01-15T16:29:04;2.10;85.00
18648;DHT22;9453;50.294;18.644;2024-01-15T16:31:31;2.10;85.60
18648;DHT22;9453;50.294;18.644;2024-01-15T16:33:58;2.10;85.50
18648;DHT22;9453;50.294;18.644;2024-01-15T16:36:25;2.20;85.90
18648;DHT22;9453;50.294;18.644;2024-01-15T16:38:52;2.10;85.50
18648;DHT22;9453;50.294;18.644;2024-01-15T16:41:19;2.20;85.80
18648;DHT22;9453;50.294;18.644;2024-01-15T16:43:51;2.20;85.80
18648;DHT22;9453;50.294;18.644;2024-01-15T16:46:20;2.20;86.10
18648;DHT22;9453;50.294;18.644;2024-01-15T16:48:48;2.20;85.70
18648;DHT22;9453;50.294;18.644;2024-01-15T16:51:15;2.20;85.70
18648;DHT22;9453;50.294;18.644;2024-01-15T16:53:43;2.20;85.60
18648;DHT22;9453;50.294;18.644;2024-01-15T16:56:10;2.20;86.10
18648;DHT22;9453;50.294;18.644;2024-01-15T16:58:38;2.20;86.30
18648;DHT22;9453;50.294;18.644;2024-01-15T17:01:07;2.20;86.40
18648;DHT22;9453;50.294;18.644;2024-01-15T17:03:34;2.20;86.40
18648;DHT22;9453;50.294;18.644;2024-01-15T17:06:02;2.20;87.30
18648;DHT22;9453;50.294;18.644;2024-01-15T17:08:29;2.20;86.90
18648;DHT22;9453;50.294;18.644;2024-01-15T17:10:57;2.20;86.80
18648;DHT22;9453;50.294;18.644;2024-01-15T17:13:25;2.20;86.50
18648;DHT22;9453;50.294;18.644;2024-01-15T17:15:53;2.20;87.00
18648;DHT22;9453;50.294;18.644;2024-01-15T17:18:22;2.20;87.40
18648;DHT22;9453;50.294;18.644;2024-01-15T17:20:49;2.20;87.30
18648;DHT22;9453;50.294;18.644;2024-01-15T17:23:17;2.10;87.10
18648;DHT22;9453;50.294;18.644;2024-01-15T17:25:47;2.10;87.30
18648;DHT22;9453;50.294;18.644;2024-01-15T17:28:15;2.10;87.60
18648;DHT22;9453;50.294;18.644;2024-01-15T17:30:43;2.10;88.40
18648;DHT22;9453;50.294;18.644;2024-01-15T17:33:12;2.10;87.50
18648;DHT22;9453;50.294;18.644;2024-01-15T17:35:45;2.10;87.90
18648;DHT22;9453;50.294;18.644;2024-01-15T17:38:17;2.10;87.80
18648;DHT22;9453;50.294;18.644;2024-01-15T17:40:44;2.10;87.90
18648;DHT22;9453;50.294;18.644;2024-01-15T17:43:14;2.20;88.20
18648;DHT22;9453;50.294;18.644;2024-01-15T17:45:47;2.10;88.20
18648;DHT22;9453;50.294;18.644;2024-01-15T17:48:14;2.10;89.10
18648;DHT22;9453;50.294;18.644;2024-01-15T17:50:49;2.10;88.60
18648;DHT22;9453;50.294;18.644;2024-01-15T17:53:20;2.10;88.90
18648;DHT22;9453;50.294;18.644;2024-01-15T17:55:48;2.00;88.50
18648;DHT22;9453;50.294;18.644;2024-01-15T17:58:16;2.10;89.00
18648;DHT22;9453;50.294;18.644;2024-01-15T18:00:46;2.00;89.00
18648;DHT22;9453;50.294;18.644;2024-01-15T18:03:13;2.00;89.00
18648;DHT22;9453;50.294;18.644;2024-01-15T18:05:42;2.00;89.00
18648;DHT22;9453;50.294;18.644;2024-01-15T18:08:09;2.00;89.00
18648;DHT22;9453;50.294;18.644;2024-01-15T18:10:37;1.90;88.90
18648;DHT22;9453;50.294;18.644;2024-01-15T18:13:04;2.00;89.00
18648;DHT22;9453;50.294;18.644;2024-01-15T18:15:33;1.90;88.90
18648;DHT22;9453;50.294;18.644;2024-01-15T18:18:00;1.90;89.00
18648;DHT22;9453;50.294;18.644;2024-01-15T18:20:27;1.90;89.80
18648;DHT22;9453;50.294;18.644;2024-01-15T18:22:56;1.90;89.90
18648;DHT22;9453;50.294;18.644;2024-01-15T18:25:24;1.90;90.20
18648;DHT22;9453;50.294;18.644;2024-01-15T18:27:54;1.90;90.20
18648;DHT22;9453;50.294;18.644;2024-01-15T18:30:21;1.90;90.20
18648;DHT22;9453;50.294;18.644;2024-01-15T18:32:48;1.90;90.20
18648;DHT22;9453;50.294;18.644;2024-01-15T18:35:15;1.90;90.20
18648;DHT22;9453;50.294;18.644;2024-01-15T18:37:44;1.90;90.10
18648;DHT22;9453;50.294;18.644;2024-01-15T18:40:13;2.00;90.10
18648;DHT22;9453;50.294;18.644;2024-01-15T18:42:42;1.90;90.20
18648;DHT22;9453;50.294;18.644;2024-01-15T18:45:09;1.90;90.40
18648;DHT22;9453;50.294;18.644;2024-01-15T18:47:36;1.90;90.40
18648;DHT22;9453;50.294;18.644;2024-01-15T18:50:04;1.90;90.40
18648;DHT22;9453;50.294;18.644;2024-01-15T18:52:32;1.90;90.50
18648;DHT22;9453;50.294;18.644;2024-01-15T18:54:59;1.90;90.50
18648;DHT22;9453;50.294;18.644;2024-01-15T18:57:27;1.90;90.50
18648;DHT22;9453;50.294;18.644;2024-01-15T18:59:54;1.90;90.50
18648;DHT22;9453;50.294;18.644;2024-01-15T19:02:21;1.80;90.60
18648;DHT22;9453;50.294;18.644;2024-01-15T19:04:48;1.90;90.60
18648;DHT22;9453;50.294;18.644;2024-01-15T19:07:15;2.00;90.40
18648;DHT22;9453;50.294;18.644;2024-01-15T19:09:42;1.90;90.40
18648;DHT22;9453;50.294;18.644;2024-01-15T19:12:09;1.90;90.20
18648;DHT22;9453;50.294;18.644;2024-01-15T19:14:38;1.90;90.30
18648;DHT22;9453;50.294;18.644;2024-01-15T19:17:05;1.90;90.20
18648;DHT22;9453;50.294;18.644;2024-01-15T19:19:32;1.90;90.30
18648;DHT22;9453;50.294;18.644;2024-01-15T19:22:02;1.90;90.30
18648;DHT22;9453;50.294;18.644;2024-01-15T19:24:29;1.90;90.30
18648;DHT22;9453;50.294;18.644;2024-01-15T19:26:56;2.00;90.30
18648;DHT22;9453;50.294;18.644;2024-01-15T19:29:23;2.00;90.30
18648;DHT22;9453;50.294;18.644;2024-01-15T19:31:52;1.90;90.40
18648;DHT22;9453;50.294;18.644;2024-01-15T19:34:20;1.90;90.90
18648;DHT22;9453;50.294;18.644;2024-01-15T19:36:48;1.90;91.30
18648;DHT22;9453;50.294;18.644;2024-01-15T19:39:15;2.00;91.50
18648;DHT22;9453;50.294;18.644;2024-01-15T19:41:42;1.80;91.10
18648;DHT22;9453;50.294;18.644;2024-01-15T19:44:10;1.80;90.90
18648;DHT22;9453;50.294;18.644;2024-01-15T19:46:37;1.80;90.90
18648;DHT22;9453;50.294;18.644;2024-01-15T19:49:11;1.80;90.90
18648;DHT22;9453;50.294;18.644;2024-01-15T19:51:38;1.70;90.70
18648;DHT22;9453;50.294;18.644;2024-01-15T19:54:09;1.80;90.70
18648;DHT22;9453;50.294;18.644;2024-01-15T19:56:36;1.80;90.70
18648;DHT22;9453;50.294;18.644;2024-01-15T19:59:03;1.70;90.50
18648;DHT22;9453;50.294;18.644;2024-01-15T20:01:31;1.70;90.60
18648;DHT22;9453;50.294;18.644;2024-01-15T20:03:58;1.70;90.70
18648;DHT22;9453;50.294;18.644;2024-01-15T20:06:27;1.70;90.60
18648;DHT22;9453;50.294;18.644;2024-01-15T20:08:55;1.70;90.70
18648;DHT22;9453;50.294;18.644;2024-01-15T20:11:23;1.70;90.70
18648;DHT22;9453;50.294;18.644;2024-01-15T20:13:50;1.70;90.70
18648;DHT22;9453;50.294;18.644;2024-01-15T20:16:17;1.70;90.70
18648;DHT22;9453;50.294;18.644;2024-01-15T20:18:44;1.60;90.60
18648;DHT22;9453;50.294;18.644;2024-01-15T20:21:11;1.60;90.70
18648;DHT22;9453;50.294;18.644;2024-01-15T20:23:39;1.60;90.90
18648;DHT22;9453;50.294;18.644;2024-01-15T20:26:07;1.60;90.90
18648;DHT22;9453;50.294;18.644;2024-01-15T20:28:34;1.70;90.90
18648;DHT22;9453;50.294;18.644;2024-01-15T20:31:01;1.60;90.90
18648;DHT22;9453;50.294;18.644;2024-01-15T20:33:30;1.60;90.90
18648;DHT22;9453;50.294;18.644;2024-01-15T20:35:59;1.60;91.10
18648;DHT22;9453;50.294;18.644;2024-01-15T20:38:26;1.50;91.10
18648;DHT22;9453;50.294;18.644;2024-01-15T20:40:54;1.50;91.00
18648;DHT22;9453;50.294;18.644;2024-01-15T20:43:21;1.50;91.10
18648;DHT22;9453;50.294;18.644;2024-01-15T20:45:49;1.50;91.10
18648;DHT22;9453;50.294;18.644;2024-01-15T20:48:16;1.60;91.10
18648;DHT22;9453;50.294;18.644;2024-01-15T20:50:43;1.60;91.10
18648;DHT22;9453;50.294;18.644;2024-01-15T20:53:10;1.50;91.10